createdAt,value
2019-04-04T00:02:49.581Z,8.20
2019-04-04T00:07:52.840Z,8.30
2019-04-04T00:12:56.410Z,8.30
2019-04-04T00:17:59.821Z,8.35
2019-04-04T00:23:03.243Z,8.40
2019-04-04T00:28:06.666Z,8.33
2019-04-04T00:33:10.084Z,8.08
2019-04-04T00:38:13.497Z,7.97
2019-04-04T00:43:16.964Z,8.11
2019-04-04T00:48:21.295Z,8.08
2019-04-04T00:53:24.866Z,8.06
2019-04-04T00:58:28.305Z,8.05
2019-04-04T01:03:31.707Z,8.01
2019-04-04T01:08:38.018Z,8.09
2019-04-04T01:13:40.333Z,7.94
2019-04-04T01:18:43.727Z,7.97
2019-04-04T01:23:47.131Z,7.83
2019-04-04T01:28:50.554Z,7.79
2019-04-04T01:33:53.968Z,7.90
2019-04-04T01:38:58.167Z,7.88
2019-04-04T01:44:05.140Z,7.90
2019-04-04T01:49:07.694Z,7.81
2019-04-04T01:54:11.186Z,7.80
2019-04-04T01:59:14.598Z,7.90
2019-04-04T02:04:18.039Z,7.80
2019-04-04T02:09:21.442Z,7.69
2019-04-04T02:14:24.873Z,7.57
2019-04-04T02:19:28.383Z,7.46
2019-04-04T02:24:32.434Z,7.35
2019-04-04T02:29:35.912Z,7.37
2019-04-04T02:34:39.316Z,7.39
2019-04-04T02:39:42.805Z,7.17
2019-04-04T02:44:46.310Z,7.25
2019-04-04T02:49:49.742Z,7.37
2019-04-04T02:54:57.106Z,7.38
2019-04-04T02:59:58.353Z,7.35
2019-04-04T03:05:01.886Z,7.21
2019-04-04T03:10:06.212Z,7.16
2019-04-04T03:15:11.092Z,6.93
2019-04-04T03:20:17.209Z,6.89
2019-04-04T03:25:19.720Z,6.85
2019-04-04T03:30:23.179Z,6.87
2019-04-04T03:35:28.921Z,6.83
2019-04-04T03:40:31.745Z,6.58
2019-04-04T03:45:35.241Z,6.54
2019-04-04T03:50:38.753Z,6.62
2019-04-04T03:55:42.171Z,6.59
2019-04-04T04:00:45.629Z,6.67
2019-04-04T04:05:49.049Z,6.65
2019-04-04T04:10:52.489Z,6.75
2019-04-04T04:15:56.139Z,6.72
2019-04-04T04:20:59.560Z,6.57
2019-04-04T04:26:03.189Z,6.52
2019-04-04T04:31:06.586Z,6.59
2019-04-04T04:36:12.717Z,6.47
2019-04-04T04:41:20.032Z,6.50
2019-04-04T04:46:20.370Z,6.62
2019-04-04T04:51:23.824Z,6.71
2019-04-04T04:56:30.937Z,6.76
2019-04-04T05:01:32.439Z,6.75
2019-04-04T05:06:36.382Z,6.46
2019-04-04T05:11:39.867Z,6.48
2019-04-04T05:16:43.305Z,6.56
2019-04-04T05:21:46.741Z,6.59
2019-04-04T05:26:50.187Z,6.59
2019-04-04T05:31:53.648Z,6.75
2019-04-04T05:36:57.084Z,6.80
2019-04-04T05:42:01.082Z,6.70
2019-04-04T05:47:04.870Z,6.67
2019-04-04T05:52:09.164Z,6.79
2019-04-04T05:57:12.723Z,6.84
2019-04-04T06:02:16.143Z,6.93
2019-04-04T06:07:19.700Z,6.85
2019-04-04T06:12:25.031Z,6.84
2019-04-04T06:17:28.318Z,6.84
2019-04-04T06:22:31.787Z,6.95
2019-04-04T06:27:35.232Z,7.02
2019-04-04T06:32:39.149Z,7.07
2019-04-04T06:37:42.572Z,6.90
2019-04-04T06:42:45.994Z,6.74
2019-04-04T06:47:49.422Z,6.85
2019-04-04T06:52:52.850Z,6.91
2019-04-04T06:57:56.633Z,6.98
2019-04-04T07:03:00.072Z,7.04
2019-04-04T07:08:03.510Z,7.06
2019-04-04T07:13:21.110Z,7.10
2019-04-04T07:18:12.891Z,7.15
2019-04-04T07:23:16.388Z,7.11
2019-04-04T07:28:19.827Z,7.17
2019-04-04T07:33:23.280Z,7.16
2019-04-04T07:38:28.702Z,7.23
2019-04-04T07:43:31.900Z,7.31
2019-04-04T07:48:35.374Z,7.42
2019-04-04T07:53:38.812Z,7.38
2019-04-04T07:58:42.370Z,7.47
2019-04-04T08:03:45.751Z,7.57
2019-04-04T08:08:49.197Z,7.53
2019-04-04T08:13:52.623Z,7.64
2019-04-04T08:18:56.067Z,7.77
2019-04-04T08:23:59.483Z,7.89
2019-04-04T08:29:02.907Z,7.85
2019-04-04T08:34:07.176Z,7.86
2019-04-04T08:39:13.578Z,7.78
2019-04-04T08:44:17.128Z,7.84
2019-04-04T08:49:20.575Z,7.82
2019-04-04T08:54:24.033Z,7.84
2019-04-04T08:59:27.478Z,7.76
2019-04-04T09:04:30.899Z,7.67
2019-04-04T09:09:34.761Z,7.66
2019-04-04T09:14:40.930Z,7.64
2019-04-04T09:19:43.592Z,7.66
2019-04-04T09:24:47.023Z,7.61
2019-04-04T09:29:50.456Z,7.67
2019-04-04T09:34:53.907Z,7.59
2019-04-04T09:39:57.321Z,7.55
2019-04-04T09:45:00.751Z,7.68
2019-04-04T09:50:05.979Z,7.53
2019-04-04T09:55:09.868Z,7.63
2019-04-04T10:00:16.889Z,7.71
2019-04-04T10:05:20.404Z,7.61
2019-04-04T10:10:23.897Z,7.46
2019-04-04T10:15:27.324Z,7.45
2019-04-04T10:20:30.736Z,7.49
2019-04-04T10:25:34.177Z,7.52
2019-04-04T10:30:37.610Z,7.61
2019-04-04T10:35:41.037Z,7.43
2019-04-04T10:40:44.467Z,7.39
2019-04-04T10:45:47.912Z,7.38
2019-04-04T10:50:51.352Z,7.46
2019-04-04T10:55:54.772Z,7.51
2019-04-04T11:00:58.207Z,7.57
2019-04-04T11:06:01.745Z,7.48
2019-04-04T11:11:05.280Z,7.58
2019-04-04T11:16:08.726Z,7.71
2019-04-04T11:21:12.161Z,7.90
2019-04-04T11:26:15.604Z,7.88
2019-04-04T11:31:19.013Z,8.03
2019-04-04T11:36:22.573Z,8.27
2019-04-04T11:41:26.882Z,8.10
2019-04-04T11:46:30.390Z,8.20
2019-04-04T11:51:33.813Z,8.27
2019-04-04T11:56:37.228Z,8.41
2019-04-04T12:01:42.325Z,8.48
2019-04-04T12:06:45.763Z,8.51
2019-04-04T12:11:49.221Z,8.59
2019-04-04T12:16:52.663Z,8.66
2019-04-04T12:21:56.102Z,8.65
2019-04-04T12:26:59.533Z,8.43
2019-04-04T12:32:02.952Z,8.30
2019-04-04T12:37:06.376Z,8.31
2019-04-04T12:42:09.878Z,8.18
2019-04-04T12:47:13.295Z,8.08
2019-04-04T12:52:16.724Z,8.15
2019-04-04T12:57:20.168Z,8.18
2019-04-04T13:02:23.631Z,8.13
2019-04-04T13:07:27.062Z,8.12
2019-04-04T13:12:30.488Z,8.08
2019-04-04T13:17:34.208Z,8.02
2019-04-04T13:22:37.722Z,8.00
2019-04-04T13:27:41.164Z,8.00
2019-04-04T13:32:44.624Z,8.08
2019-04-04T13:37:48.140Z,8.13
2019-04-04T13:42:52.964Z,8.15
2019-04-04T13:47:56.694Z,8.06
2019-04-04T13:53:00.140Z,8.14
2019-04-04T13:58:03.928Z,8.10
2019-04-04T14:03:07.355Z,8.17
2019-04-04T14:08:10.809Z,8.08
2019-04-04T14:13:14.522Z,8.21
2019-04-04T14:18:38.934Z,8.15
2019-04-04T14:23:34.431Z,8.02
2019-04-04T14:28:37.871Z,7.96
2019-04-04T14:33:41.317Z,8.15
2019-04-04T14:38:44.854Z,8.14
2019-04-04T14:43:48.274Z,8.13
2019-04-04T14:48:55.139Z,8.26
2019-04-04T14:53:58.521Z,8.31
2019-04-04T14:59:01.961Z,8.21
2019-04-04T15:04:05.459Z,8.16
2019-04-04T15:09:10.739Z,8.15
2019-04-04T15:14:14.516Z,7.95
2019-04-04T15:19:18.033Z,7.88
2019-04-04T15:24:21.459Z,8.04
2019-04-04T15:29:25.164Z,8.12
2019-04-04T15:34:28.641Z,8.14
2019-04-04T15:39:32.061Z,7.93
2019-04-04T15:44:35.500Z,8.01
2019-04-04T15:49:38.935Z,7.75
2019-04-04T15:54:42.370Z,7.87
2019-04-04T15:59:45.820Z,7.83
2019-04-04T16:04:49.241Z,7.97
2019-04-04T16:09:52.703Z,7.78
2019-04-04T16:14:56.503Z,7.76
2019-04-04T16:19:59.942Z,7.80
2019-04-04T16:25:04.072Z,7.85
2019-04-04T16:30:08.857Z,7.66
2019-04-04T16:35:12.518Z,7.58
2019-04-04T16:40:16.284Z,7.53
2019-04-04T16:45:19.942Z,7.68
2019-04-04T16:50:23.381Z,7.74
2019-04-04T16:55:26.822Z,7.64
2019-04-04T17:00:31.261Z,7.41
2019-04-04T17:05:34.690Z,7.50
2019-04-04T17:10:38.098Z,7.55
2019-04-04T17:15:41.537Z,7.48
2019-04-04T17:20:45.010Z,7.22
2019-04-04T17:25:48.834Z,7.22
2019-04-04T17:30:54.128Z,7.18
2019-04-04T17:35:58.013Z,7.30
2019-04-04T17:41:02.137Z,7.47
2019-04-04T17:46:06.952Z,7.42
2019-04-04T17:51:11.161Z,7.49
2019-04-04T17:56:16.737Z,7.48
2019-04-04T18:01:20.191Z,7.55
2019-04-04T18:06:23.591Z,7.53
2019-04-04T18:11:27.026Z,7.43
2019-04-04T18:16:30.469Z,7.30
2019-04-04T18:21:33.966Z,7.15
2019-04-04T18:26:37.453Z,7.21
2019-04-04T18:31:40.890Z,7.29
2019-04-04T18:36:45.000Z,7.38
2019-04-04T18:41:48.600Z,7.31
2019-04-04T18:46:52.061Z,7.30
2019-04-04T18:51:55.914Z,7.26
2019-04-04T18:56:59.577Z,7.34
2019-04-04T19:02:02.996Z,7.30
2019-04-04T19:07:06.435Z,7.13
2019-04-04T19:12:09.926Z,7.06
2019-04-04T19:17:13.436Z,7.11
2019-04-04T19:22:16.850Z,7.20
2019-04-04T19:27:20.294Z,7.30
2019-04-04T19:32:23.884Z,7.35
2019-04-04T19:37:27.334Z,7.37
2019-04-04T19:42:30.778Z,7.36
2019-04-04T19:47:34.266Z,7.40
2019-04-04T19:52:37.694Z,7.27
2019-04-04T19:57:41.300Z,7.33
2019-04-04T20:02:44.754Z,7.38
2019-04-04T20:07:48.192Z,7.41
2019-04-04T20:12:51.626Z,7.35
2019-04-04T20:17:55.066Z,7.43
2019-04-04T20:22:58.520Z,7.38
2019-04-04T20:28:01.945Z,7.36
2019-04-04T20:33:05.521Z,7.39
2019-04-04T20:38:08.970Z,7.32
2019-04-04T20:43:12.387Z,7.22
2019-04-04T20:48:15.897Z,7.16
2019-04-04T20:53:22.028Z,7.17
2019-04-04T20:58:24.805Z,7.15
2019-04-04T21:03:28.291Z,7.17
2019-04-04T21:08:31.684Z,7.18
2019-04-04T21:13:35.125Z,7.20
2019-04-04T21:18:38.560Z,7.17
2019-04-04T21:23:41.988Z,7.20
2019-04-04T21:28:45.416Z,7.20
2019-04-04T21:33:48.843Z,7.16
2019-04-04T21:38:52.274Z,7.13
2019-04-04T21:44:07.876Z,7.22
2019-04-04T21:49:00.873Z,7.23
2019-04-04T21:54:04.375Z,7.26
2019-04-04T21:59:07.810Z,7.29
2019-04-04T22:04:11.278Z,7.06
2019-04-04T22:09:16.535Z,7.06
2019-04-04T22:14:22.033Z,7.14
2019-04-04T22:19:25.193Z,7.11
2019-04-04T22:24:28.709Z,7.05
2019-04-04T22:29:32.158Z,7.04
2019-04-04T22:34:35.599Z,7.10
2019-04-04T22:39:39.054Z,7.06
2019-04-04T22:44:42.518Z,7.16
2019-04-04T22:49:45.969Z,7.21
2019-04-04T22:54:49.513Z,7.21
2019-04-04T22:59:52.971Z,7.23
2019-04-04T23:04:56.441Z,7.23
2019-04-04T23:09:59.879Z,7.33
2019-04-04T23:15:03.395Z,7.36
2019-04-04T23:20:10.230Z,7.44
2019-04-04T23:25:13.960Z,7.44
2019-04-04T23:30:18.209Z,7.44
2019-04-04T23:35:21.756Z,7.42
2019-04-04T23:40:25.198Z,7.42
2019-04-04T23:45:28.654Z,7.42
2019-04-04T23:50:32.110Z,7.42
2019-04-04T23:55:35.572Z,7.39
